sensor_id;sensor_type;location;lat;lon;timestamp;P1;durP1;ratioP1;P2;durP2;ratioP2
40449;SDS011;41787;53.570;10.032;2022-09-30T00:01:33;10.82;;;7.05;;
40449;SDS011;41787;53.570;10.032;2022-09-30T00:03:59;11.35;;;7.15;;
40449;SDS011;41787;53.570;10.032;2022-09-30T00:06:26;7.68;;;6.00;;
40449;SDS011;41787;53.570;10.032;2022-09-30T00:08:53;11.45;;;6.68;;
40449;SDS011;41787;53.570;10.032;2022-09-30T00:11:20;11.50;;;7.88;;
40449;SDS011;41787;53.570;10.032;2022-09-30T00:13:50;11.38;;;7.50;;
40449;SDS011;41787;53.570;10.032;2022-09-30T00:16:17;10.65;;;7.30;;
40449;SDS011;41787;53.570;10.032;2022-09-30T00:18:43;13.65;;;7.80;;
40449;SDS011;41787;53.570;10.032;2022-09-30T00:21:10;8.82;;;6.82;;
40449;SDS011;41787;53.570;10.032;2022-09-30T00:23:36;9.80;;;6.95;;
40449;SDS011;41787;53.570;10.032;2022-09-30T00:26:04;13.00;;;6.85;;
40449;SDS011;41787;53.570;10.032;2022-09-30T00:28:30;11.75;;;7.00;;
40449;SDS011;41787;53.570;10.032;2022-09-30T00:31:00;8.80;;;7.03;;
40449;SDS011;41787;53.570;10.032;2022-09-30T00:33:26;11.85;;;7.40;;
40449;SDS011;41787;53.570;10.032;2022-09-30T00:35:52;11.35;;;7.47;;
40449;SDS011;41787;53.570;10.032;2022-09-30T00:38:18;9.93;;;8.13;;
40449;SDS011;41787;53.570;10.032;2022-09-30T00:40:44;11.77;;;7.28;;
40449;SDS011;41787;53.570;10.032;2022-09-30T00:43:14;10.65;;;7.68;;
40449;SDS011;41787;53.570;10.032;2022-09-30T00:45:47;11.15;;;8.82;;
40449;SDS011;41787;53.570;10.032;2022-09-30T00:48:16;11.77;;;8.05;;
40449;SDS011;41787;53.570;10.032;2022-09-30T00:50:44;9.38;;;7.70;;
40449;SDS011;41787;53.570;10.032;2022-09-30T00:53:15;14.75;;;8.95;;
40449;SDS011;41787;53.570;10.032;2022-09-30T00:55:44;11.65;;;8.73;;
40449;SDS011;41787;53.570;10.032;2022-09-30T00:58:12;11.38;;;8.90;;
40449;SDS011;41787;53.570;10.032;2022-09-30T01:00:40;13.27;;;9.70;;
40449;SDS011;41787;53.570;10.032;2022-09-30T01:03:06;16.08;;;9.43;;
40449;SDS011;41787;53.570;10.032;2022-09-30T01:05:32;11.95;;;8.85;;
40449;SDS011;41787;53.570;10.032;2022-09-30T01:07:59;12.63;;;9.07;;
40449;SDS011;41787;53.570;10.032;2022-09-30T01:10:26;12.30;;;9.18;;
40449;SDS011;41787;53.570;10.032;2022-09-30T01:12:52;12.60;;;9.85;;
40449;SDS011;41787;53.570;10.032;2022-09-30T01:15:19;12.63;;;9.55;;
40449;SDS011;41787;53.570;10.032;2022-09-30T01:28:01;13.77;;;9.60;;
40449;SDS011;41787;53.570;10.032;2022-09-30T01:33:30;12.18;;;10.07;;
40449;SDS011;41787;53.570;10.032;2022-09-30T01:46:02;14.60;;;10.43;;
40449;SDS011;41787;53.570;10.032;2022-09-30T01:56:05;21.15;;;11.73;;
40449;SDS011;41787;53.570;10.032;2022-09-30T01:58:49;15.60;;;12.05;;
40449;SDS011;41787;53.570;10.032;2022-09-30T02:01:27;15.48;;;11.13;;
40449;SDS011;41787;53.570;10.032;2022-09-30T02:03:58;18.92;;;11.07;;
40449;SDS011;41787;53.570;10.032;2022-09-30T02:06:34;16.95;;;12.07;;
40449;SDS011;41787;53.570;10.032;2022-09-30T02:09:03;15.98;;;12.88;;
40449;SDS011;41787;53.570;10.032;2022-09-30T02:16:35;21.60;;;12.02;;
40449;SDS011;41787;53.570;10.032;2022-09-30T02:19:07;19.25;;;13.38;;
40449;SDS011;41787;53.570;10.032;2022-09-30T02:21:37;19.15;;;12.68;;
40449;SDS011;41787;53.570;10.032;2022-09-30T02:24:04;18.23;;;13.73;;
40449;SDS011;41787;53.570;10.032;2022-09-30T02:26:33;17.38;;;12.88;;
40449;SDS011;41787;53.570;10.032;2022-09-30T02:29:05;20.52;;;13.60;;
40449;SDS011;41787;53.570;10.032;2022-09-30T02:31:33;20.33;;;13.85;;
40449;SDS011;41787;53.570;10.032;2022-09-30T02:36:50;18.55;;;13.80;;
40449;SDS011;41787;53.570;10.032;2022-09-30T02:39:15;20.33;;;13.18;;
40449;SDS011;41787;53.570;10.032;2022-09-30T02:41:48;22.70;;;14.00;;
40449;SDS011;41787;53.570;10.032;2022-09-30T02:44:16;20.20;;;14.40;;
40449;SDS011;41787;53.570;10.032;2022-09-30T02:47:29;19.30;;;13.63;;
40449;SDS011;41787;53.570;10.032;2022-09-30T02:49:42;20.70;;;14.77;;
40449;SDS011;41787;53.570;10.032;2022-09-30T02:52:18;22.60;;;13.50;;
40449;SDS011;41787;53.570;10.032;2022-09-30T02:55:08;20.08;;;13.75;;
40449;SDS011;41787;53.570;10.032;2022-09-30T03:00:15;24.30;;;13.00;;
40449;SDS011;41787;53.570;10.032;2022-09-30T03:02:41;19.20;;;13.82;;
40449;SDS011;41787;53.570;10.032;2022-09-30T03:05:07;21.42;;;14.00;;
40449;SDS011;41787;53.570;10.032;2022-09-30T03:07:34;17.38;;;12.88;;
40449;SDS011;41787;53.570;10.032;2022-09-30T03:10:00;20.23;;;13.25;;
40449;SDS011;41787;53.570;10.032;2022-09-30T03:12:41;18.80;;;14.32;;
40449;SDS011;41787;53.570;10.032;2022-09-30T03:20:45;19.23;;;13.82;;
40449;SDS011;41787;53.570;10.032;2022-09-30T03:23:18;18.90;;;13.27;;
40449;SDS011;41787;53.570;10.032;2022-09-30T03:25:52;20.52;;;13.68;;
40449;SDS011;41787;53.570;10.032;2022-09-30T03:28:26;16.80;;;13.15;;
40449;SDS011;41787;53.570;10.032;2022-09-30T03:31:04;17.35;;;13.70;;
40449;SDS011;41787;53.570;10.032;2022-09-30T03:33:38;20.25;;;13.63;;
40449;SDS011;41787;53.570;10.032;2022-09-30T03:44:06;21.38;;;13.27;;
40449;SDS011;41787;53.570;10.032;2022-09-30T03:49:00;26.20;;;13.13;;
40449;SDS011;41787;53.570;10.032;2022-09-30T03:51:28;17.45;;;12.60;;
40449;SDS011;41787;53.570;10.032;2022-09-30T03:53:54;21.17;;;13.20;;
40449;SDS011;41787;53.570;10.032;2022-09-30T03:56:27;19.58;;;13.00;;
40449;SDS011;41787;53.570;10.032;2022-09-30T03:58:53;23.10;;;13.60;;
40449;SDS011;41787;53.570;10.032;2022-09-30T04:01:20;20.83;;;13.95;;
40449;SDS011;41787;53.570;10.032;2022-09-30T04:03:47;20.00;;;14.10;;
40449;SDS011;41787;53.570;10.032;2022-09-30T04:06:16;24.58;;;15.05;;
40449;SDS011;41787;53.570;10.032;2022-09-30T04:08:42;18.33;;;13.32;;
40449;SDS011;41787;53.570;10.032;2022-09-30T04:11:08;19.23;;;13.68;;
40449;SDS011;41787;53.570;10.032;2022-09-30T04:13:34;21.55;;;14.05;;
40449;SDS011;41787;53.570;10.032;2022-09-30T04:16:00;19.05;;;13.80;;
40449;SDS011;41787;53.570;10.032;2022-09-30T04:18:26;19.50;;;14.50;;
40449;SDS011;41787;53.570;10.032;2022-09-30T04:20:54;23.48;;;14.77;;
40449;SDS011;41787;53.570;10.032;2022-09-30T04:23:20;22.52;;;13.45;;
40449;SDS011;41787;53.570;10.032;2022-09-30T04:25:52;19.75;;;13.98;;
40449;SDS011;41787;53.570;10.032;2022-09-30T04:28:18;20.35;;;14.40;;
40449;SDS011;41787;53.570;10.032;2022-09-30T04:30:45;20.27;;;14.20;;
40449;SDS011;41787;53.570;10.032;2022-09-30T04:33:11;16.80;;;13.68;;
40449;SDS011;41787;53.570;10.032;2022-09-30T04:35:37;19.65;;;13.95;;
40449;SDS011;41787;53.570;10.032;2022-09-30T04:38:03;22.05;;;15.10;;
40449;SDS011;41787;53.570;10.032;2022-09-30T04:40:31;18.98;;;13.68;;
40449;SDS011;41787;53.570;10.032;2022-09-30T04:42:57;21.48;;;14.85;;
40449;SDS011;41787;53.570;10.032;2022-09-30T04:45:23;20.63;;;14.07;;
40449;SDS011;41787;53.570;10.032;2022-09-30T04:47:49;18.48;;;13.55;;
40449;SDS011;41787;53.570;10.032;2022-09-30T04:50:16;17.15;;;13.02;;
40449;SDS011;41787;53.570;10.032;2022-09-30T04:52:42;18.75;;;14.20;;
40449;SDS011;41787;53.570;10.032;2022-09-30T04:55:08;23.88;;;14.93;;
40449;SDS011;41787;53.570;10.032;2022-09-30T04:57:34;19.20;;;14.07;;
40449;SDS011;41787;53.570;10.032;2022-09-30T05:00:01;22.45;;;14.70;;
40449;SDS011;41787;53.570;10.032;2022-09-30T05:02:27;20.42;;;14.68;;
40449;SDS011;41787;53.570;10.032;2022-09-30T05:04:53;21.70;;;14.30;;
40449;SDS011;41787;53.570;10.032;2022-09-30T05:07:19;20.58;;;13.93;;
40449;SDS011;41787;53.570;10.032;2022-09-30T05:09:45;20.13;;;13.93;;
40449;SDS011;41787;53.570;10.032;2022-09-30T05:12:11;18.77;;;13.65;;
40449;SDS011;41787;53.570;10.032;2022-09-30T05:14:37;18.88;;;14.05;;
40449;SDS011;41787;53.570;10.032;2022-09-30T05:17:03;22.40;;;14.90;;
40449;SDS011;41787;53.570;10.032;2022-09-30T05:19:29;20.92;;;14.45;;
40449;SDS011;41787;53.570;10.032;2022-09-30T05:21:55;26.20;;;14.48;;
40449;SDS011;41787;53.570;10.032;2022-09-30T05:24:21;19.52;;;14.82;;
40449;SDS011;41787;53.570;10.032;2022-09-30T05:26:47;22.73;;;15.60;;
40449;SDS011;41787;53.570;10.032;2022-09-30T05:29:13;22.00;;;16.65;;
40449;SDS011;41787;53.570;10.032;2022-09-30T05:31:39;23.10;;;20.05;;
40449;SDS011;41787;53.570;10.032;2022-09-30T05:34:06;22.30;;;16.88;;
40449;SDS011;41787;53.570;10.032;2022-09-30T05:36:32;23.38;;;16.48;;
40449;SDS011;41787;53.570;10.032;2022-09-30T05:38:58;27.33;;;15.88;;
40449;SDS011;41787;53.570;10.032;2022-09-30T05:41:24;22.00;;;16.08;;
40449;SDS011;41787;53.570;10.032;2022-09-30T05:43:50;26.73;;;16.40;;
40449;SDS011;41787;53.570;10.032;2022-09-30T05:46:16;23.23;;;16.02;;
40449;SDS011;41787;53.570;10.032;2022-09-30T05:48:42;22.42;;;16.60;;
40449;SDS011;41787;53.570;10.032;2022-09-30T05:51:09;27.13;;;17.48;;
40449;SDS011;41787;53.570;10.032;2022-09-30T05:53:35;23.85;;;15.77;;
40449;SDS011;41787;53.570;10.032;2022-09-30T05:56:02;31.48;;;18.73;;
40449;SDS011;41787;53.570;10.032;2022-09-30T05:58:28;29.45;;;17.30;;
40449;SDS011;41787;53.570;10.032;2022-09-30T06:00:55;27.73;;;18.83;;
40449;SDS011;41787;53.570;10.032;2022-09-30T06:03:21;26.40;;;18.63;;
40449;SDS011;41787;53.570;10.032;2022-09-30T06:05:47;29.75;;;19.88;;
40449;SDS011;41787;53.570;10.032;2022-09-30T06:08:14;28.02;;;18.55;;
40449;SDS011;41787;53.570;10.032;2022-09-30T06:10:40;26.38;;;18.13;;
40449;SDS011;41787;53.570;10.032;2022-09-30T06:13:07;28.00;;;19.45;;
40449;SDS011;41787;53.570;10.032;2022-09-30T06:15:33;29.65;;;18.33;;
40449;SDS011;41787;53.570;10.032;2022-09-30T06:18:00;28.02;;;19.00;;
40449;SDS011;41787;53.570;10.032;2022-09-30T06:20:26;29.08;;;19.13;;
40449;SDS011;41787;53.570;10.032;2022-09-30T06:22:52;31.83;;;19.00;;
40449;SDS011;41787;53.570;10.032;2022-09-30T06:25:18;29.25;;;18.73;;
40449;SDS011;41787;53.570;10.032;2022-09-30T06:27:45;25.92;;;17.75;;
40449;SDS011;41787;53.570;10.032;2022-09-30T06:30:11;30.02;;;19.60;;
40449;SDS011;41787;53.570;10.032;2022-09-30T06:32:37;29.20;;;19.42;;
40449;SDS011;41787;53.570;10.032;2022-09-30T06:35:03;24.55;;;18.70;;
40449;SDS011;41787;53.570;10.032;2022-09-30T06:37:29;27.17;;;19.55;;
40449;SDS011;41787;53.570;10.032;2022-09-30T06:39:55;26.73;;;18.40;;
40449;SDS011;41787;53.570;10.032;2022-09-30T06:42:21;33.42;;;20.42;;
40449;SDS011;41787;53.570;10.032;2022-09-30T06:44:48;29.10;;;18.45;;
40449;SDS011;41787;53.570;10.032;2022-09-30T06:47:15;28.90;;;18.65;;
40449;SDS011;41787;53.570;10.032;2022-09-30T06:49:43;27.92;;;18.23;;
40449;SDS011;41787;53.570;10.032;2022-09-30T06:52:09;24.27;;;17.35;;
40449;SDS011;41787;53.570;10.032;2022-09-30T06:54:40;30.00;;;18.03;;
40449;SDS011;41787;53.570;10.032;2022-09-30T06:57:07;25.08;;;18.02;;
40449;SDS011;41787;53.570;10.032;2022-09-30T06:59:33;29.02;;;18.17;;
40449;SDS011;41787;53.570;10.032;2022-09-30T07:01:59;28.88;;;18.15;;
40449;SDS011;41787;53.570;10.032;2022-09-30T07:04:25;29.85;;;17.85;;
40449;SDS011;41787;53.570;10.032;2022-09-30T07:06:51;24.35;;;16.30;;
40449;SDS011;41787;53.570;10.032;2022-09-30T07:09:18;21.45;;;16.55;;
40449;SDS011;41787;53.570;10.032;2022-09-30T07:11:44;23.52;;;17.50;;
40449;SDS011;41787;53.570;10.032;2022-09-30T07:14:10;23.17;;;16.95;;
40449;SDS011;41787;53.570;10.032;2022-09-30T07:16:37;26.17;;;17.20;;
40449;SDS011;41787;53.570;10.032;2022-09-30T07:19:04;27.52;;;18.30;;
40449;SDS011;41787;53.570;10.032;2022-09-30T07:21:31;21.67;;;16.42;;
40449;SDS011;41787;53.570;10.032;2022-09-30T07:23:57;24.20;;;15.95;;
40449;SDS011;41787;53.570;10.032;2022-09-30T07:26:24;19.17;;;15.23;;
40449;SDS011;41787;53.570;10.032;2022-09-30T07:28:50;19.58;;;14.90;;
40449;SDS011;41787;53.570;10.032;2022-09-30T07:31:18;21.75;;;14.75;;
40449;SDS011;41787;53.570;10.032;2022-09-30T07:33:45;18.85;;;14.20;;
40449;SDS011;41787;53.570;10.032;2022-09-30T07:36:12;21.00;;;14.40;;
40449;SDS011;41787;53.570;10.032;2022-09-30T07:38:38;21.02;;;14.40;;
40449;SDS011;41787;53.570;10.032;2022-09-30T07:41:07;17.30;;;13.75;;
40449;SDS011;41787;53.570;10.032;2022-09-30T07:43:33;25.20;;;13.75;;
40449;SDS011;41787;53.570;10.032;2022-09-30T07:46:17;19.98;;;14.70;;
40449;SDS011;41787;53.570;10.032;2022-09-30T07:48:48;16.60;;;12.57;;
40449;SDS011;41787;53.570;10.032;2022-09-30T07:51:26;17.73;;;12.90;;
40449;SDS011;41787;53.570;10.032;2022-09-30T07:53:56;21.37;;;12.43;;
40449;SDS011;41787;53.570;10.032;2022-09-30T07:56:22;19.35;;;12.52;;
40449;SDS011;41787;53.570;10.032;2022-09-30T07:58:52;18.80;;;12.35;;
40449;SDS011;41787;53.570;10.032;2022-09-30T08:01:18;14.88;;;11.00;;
40449;SDS011;41787;53.570;10.032;2022-09-30T08:03:43;16.95;;;11.88;;
40449;SDS011;41787;53.570;10.032;2022-09-30T08:06:11;15.93;;;12.27;;
40449;SDS011;41787;53.570;10.032;2022-09-30T08:08:37;12.82;;;10.45;;
40449;SDS011;41787;53.570;10.032;2022-09-30T08:11:04;16.80;;;10.93;;
40449;SDS011;41787;53.570;10.032;2022-09-30T08:13:30;19.45;;;10.52;;
40449;SDS011;41787;53.570;10.032;2022-09-30T08:15:56;14.75;;;10.48;;
40449;SDS011;41787;53.570;10.032;2022-09-30T08:18:22;15.82;;;10.18;;
40449;SDS011;41787;53.570;10.032;2022-09-30T08:20:48;15.43;;;9.35;;
40449;SDS011;41787;53.570;10.032;2022-09-30T08:23:14;15.00;;;10.05;;
40449;SDS011;41787;53.570;10.032;2022-09-30T08:25:40;13.73;;;9.50;;
40449;SDS011;41787;53.570;10.032;2022-09-30T08:28:06;21.45;;;10.55;;
40449;SDS011;41787;53.570;10.032;2022-09-30T08:30:35;11.98;;;8.82;;
40449;SDS011;41787;53.570;10.032;2022-09-30T08:33:02;11.18;;;8.60;;
40449;SDS011;41787;53.570;10.032;2022-09-30T08:35:28;10.45;;;7.80;;
40449;SDS011;41787;53.570;10.032;2022-09-30T08:37:54;10.85;;;7.13;;
40449;SDS011;41787;53.570;10.032;2022-09-30T08:40:24;12.18;;;6.65;;
40449;SDS011;41787;53.570;10.032;2022-09-30T08:42:57;7.32;;;5.40;;
40449;SDS011;41787;53.570;10.032;2022-09-30T08:45:34;8.95;;;5.35;;
40449;SDS011;41787;53.570;10.032;2022-09-30T08:48:05;8.85;;;5.25;;
40449;SDS011;41787;53.570;10.032;2022-09-30T08:50:35;9.70;;;4.88;;
40449;SDS011;41787;53.570;10.032;2022-09-30T08:53:07;6.57;;;3.95;;
40449;SDS011;41787;53.570;10.032;2022-09-30T08:55:40;7.18;;;3.58;;
40449;SDS011;41787;53.570;10.032;2022-09-30T09:00:42;5.95;;;2.85;;
40449;SDS011;41787;53.570;10.032;2022-09-30T09:03:08;6.57;;;3.17;;
40449;SDS011;41787;53.570;10.032;2022-09-30T09:05:48;5.45;;;3.20;;
40449;SDS011;41787;53.570;10.032;2022-09-30T09:08:34;3.28;;;2.67;;
40449;SDS011;41787;53.570;10.032;2022-09-30T09:11:11;5.70;;;2.78;;
40449;SDS011;41787;53.570;10.032;2022-09-30T09:13:49;4.45;;;2.90;;
40449;SDS011;41787;53.570;10.032;2022-09-30T09:16:20;5.35;;;2.80;;
40449;SDS011;41787;53.570;10.032;2022-09-30T09:21:19;5.47;;;2.92;;
40449;SDS011;41787;53.570;10.032;2022-09-30T09:23:45;4.97;;;2.40;;
40449;SDS011;41787;53.570;10.032;2022-09-30T09:26:13;3.50;;;2.58;;
40449;SDS011;41787;53.570;10.032;2022-09-30T09:31:07;5.43;;;2.55;;
40449;SDS011;41787;53.570;10.032;2022-09-30T09:33:38;2.78;;;1.80;;
40449;SDS011;41787;53.570;10.032;2022-09-30T09:36:09;4.32;;;1.70;;
40449;SDS011;41787;53.570;10.032;2022-09-30T09:41:16;6.60;;;2.42;;
40449;SDS011;41787;53.570;10.032;2022-09-30T09:43:56;3.58;;;2.20;;
40449;SDS011;41787;53.570;10.032;2022-09-30T09:46:27;3.75;;;2.10;;
40449;SDS011;41787;53.570;10.032;2022-09-30T09:51:46;10.77;;;2.08;;
40449;SDS011;41787;53.570;10.032;2022-09-30T09:54:13;3.75;;;1.40;;
40449;SDS011;41787;53.570;10.032;2022-09-30T09:56:40;6.22;;;2.00;;
40449;SDS011;41787;53.570;10.032;2022-09-30T09:59:08;6.85;;;1.90;;
40449;SDS011;41787;53.570;10.032;2022-09-30T10:01:35;4.40;;;2.25;;
40449;SDS011;41787;53.570;10.032;2022-09-30T10:04:09;4.13;;;1.85;;
40449;SDS011;41787;53.570;10.032;2022-09-30T10:06:46;2.25;;;1.65;;
40449;SDS011;41787;53.570;10.032;2022-09-30T10:09:20;5.22;;;1.92;;
40449;SDS011;41787;53.570;10.032;2022-09-30T10:11:46;8.60;;;2.45;;
40449;SDS011;41787;53.570;10.032;2022-09-30T10:14:16;10.63;;;2.45;;
40449;SDS011;41787;53.570;10.032;2022-09-30T10:16:44;3.90;;;2.10;;
40449;SDS011;41787;53.570;10.032;2022-09-30T10:19:21;4.32;;;2.30;;
40449;SDS011;41787;53.570;10.032;2022-09-30T10:21:47;4.15;;;2.40;;
40449;SDS011;41787;53.570;10.032;2022-09-30T10:26:51;3.38;;;2.28;;
40449;SDS011;41787;53.570;10.032;2022-09-30T10:29:25;4.10;;;2.22;;
40449;SDS011;41787;53.570;10.032;2022-09-30T10:31:51;5.10;;;2.15;;
40449;SDS011;41787;53.570;10.032;2022-09-30T10:36:56;4.25;;;2.15;;
40449;SDS011;41787;53.570;10.032;2022-09-30T10:39:36;3.58;;;2.10;;
40449;SDS011;41787;53.570;10.032;2022-09-30T10:44:32;4.03;;;2.70;;
40449;SDS011;41787;53.570;10.032;2022-09-30T10:47:01;4.15;;;1.60;;
40449;SDS011;41787;53.570;10.032;2022-09-30T10:49:36;3.70;;;2.40;;
40449;SDS011;41787;53.570;10.032;2022-09-30T10:52:05;2.92;;;1.60;;
40449;SDS011;41787;53.570;10.032;2022-09-30T10:54:33;2.65;;;1.55;;
40449;SDS011;41787;53.570;10.032;2022-09-30T10:57:02;5.68;;;2.08;;
40449;SDS011;41787;53.570;10.032;2022-09-30T10:59:35;2.53;;;1.67;;
40449;SDS011;41787;53.570;10.032;2022-09-30T11:02:24;2.97;;;1.73;;
40449;SDS011;41787;53.570;10.032;2022-09-30T11:05:32;5.18;;;1.83;;
40449;SDS011;41787;53.570;10.032;2022-09-30T11:15:31;1.45;;;0.90;;
40449;SDS011;41787;53.570;10.032;2022-09-30T11:17:59;4.90;;;1.42;;
40449;SDS011;41787;53.570;10.032;2022-09-30T11:20:28;2.60;;;1.08;;
40449;SDS011;41787;53.570;10.032;2022-09-30T11:22:59;6.10;;;1.90;;
40449;SDS011;41787;53.570;10.032;2022-09-30T11:25:31;2.13;;;1.10;;
40449;SDS011;41787;53.570;10.032;2022-09-30T11:28:10;2.88;;;0.95;;
40449;SDS011;41787;53.570;10.032;2022-09-30T11:35:58;3.47;;;0.70;;
40449;SDS011;41787;53.570;10.032;2022-09-30T11:43:52;2.63;;;0.90;;
40449;SDS011;41787;53.570;10.032;2022-09-30T11:46:31;1.40;;;0.85;;
40449;SDS011;41787;53.570;10.032;2022-09-30T11:51:30;1.58;;;0.65;;
40449;SDS011;41787;53.570;10.032;2022-09-30T11:56:33;1.50;;;0.90;;
40449;SDS011;41787;53.570;10.032;2022-09-30T11:59:02;3.65;;;1.00;;
40449;SDS011;41787;53.570;10.032;2022-09-30T12:01:30;6.43;;;1.08;;
40449;SDS011;41787;53.570;10.032;2022-09-30T12:04:09;3.65;;;0.70;;
40449;SDS011;41787;53.570;10.032;2022-09-30T12:06:39;2.53;;;0.80;;
40449;SDS011;41787;53.570;10.032;2022-09-30T12:09:11;1.20;;;0.85;;
40449;SDS011;41787;53.570;10.032;2022-09-30T12:11:43;9.63;;;1.30;;
40449;SDS011;41787;53.570;10.032;2022-09-30T12:14:19;3.00;;;1.27;;
40449;SDS011;41787;53.570;10.032;2022-09-30T12:16:46;3.22;;;1.30;;
40449;SDS011;41787;53.570;10.032;2022-09-30T12:19:16;2.03;;;1.52;;
40449;SDS011;41787;53.570;10.032;2022-09-30T12:21:57;4.57;;;1.80;;
40449;SDS011;41787;53.570;10.032;2022-09-30T12:24:38;2.33;;;1.50;;
40449;SDS011;41787;53.570;10.032;2022-09-30T12:29:47;4.35;;;1.95;;
40449;SDS011;41787;53.570;10.032;2022-09-30T12:32:57;2.80;;;2.03;;
40449;SDS011;41787;53.570;10.032;2022-09-30T12:38:12;4.68;;;2.90;;
40449;SDS011;41787;53.570;10.032;2022-09-30T12:43:16;6.50;;;3.30;;
40449;SDS011;41787;53.570;10.032;2022-09-30T12:45:59;3.83;;;2.67;;
40449;SDS011;41787;53.570;10.032;2022-09-30T12:48:31;4.28;;;2.75;;
40449;SDS011;41787;53.570;10.032;2022-09-30T12:50:58;4.93;;;3.28;;
40449;SDS011;41787;53.570;10.032;2022-09-30T12:53:26;6.47;;;2.70;;
40449;SDS011;41787;53.570;10.032;2022-09-30T12:55:53;4.15;;;2.70;;
40449;SDS011;41787;53.570;10.032;2022-09-30T12:58:21;4.15;;;3.13;;
40449;SDS011;41787;53.570;10.032;2022-09-30T13:00:57;8.35;;;2.35;;
40449;SDS011;41787;53.570;10.032;2022-09-30T13:03:24;4.30;;;2.50;;
40449;SDS011;41787;53.570;10.032;2022-09-30T13:10:46;4.78;;;2.42;;
40449;SDS011;41787;53.570;10.032;2022-09-30T13:13:22;3.70;;;2.60;;
40449;SDS011;41787;53.570;10.032;2022-09-30T13:15:49;4.60;;;2.50;;
40449;SDS011;41787;53.570;10.032;2022-09-30T13:28:51;5.50;;;2.53;;
40449;SDS011;41787;53.570;10.032;2022-09-30T13:31:18;3.45;;;2.30;;
40449;SDS011;41787;53.570;10.032;2022-09-30T13:33:45;3.28;;;2.20;;
40449;SDS011;41787;53.570;10.032;2022-09-30T13:36:16;5.20;;;2.70;;
40449;SDS011;41787;53.570;10.032;2022-09-30T13:38:43;6.15;;;2.33;;
40449;SDS011;41787;53.570;10.032;2022-09-30T13:41:22;4.55;;;2.42;;
40449;SDS011;41787;53.570;10.032;2022-09-30T13:43:53;4.10;;;2.47;;
40449;SDS011;41787;53.570;10.032;2022-09-30T13:46:31;3.72;;;2.88;;
40449;SDS011;41787;53.570;10.032;2022-09-30T13:49:00;7.75;;;2.58;;
40449;SDS011;41787;53.570;10.032;2022-09-30T13:51:28;8.20;;;2.72;;
40449;SDS011;41787;53.570;10.032;2022-09-30T13:53:57;3.60;;;2.63;;
40449;SDS011;41787;53.570;10.032;2022-09-30T13:56:26;4.97;;;2.58;;
40449;SDS011;41787;53.570;10.032;2022-09-30T14:04:24;5.25;;;2.63;;
40449;SDS011;41787;53.570;10.032;2022-09-30T14:07:04;6.65;;;2.88;;
40449;SDS011;41787;53.570;10.032;2022-09-30T14:12:02;7.00;;;3.33;;
40449;SDS011;41787;53.570;10.032;2022-09-30T14:14:44;5.68;;;2.90;;
40449;SDS011;41787;53.570;10.032;2022-09-30T14:17:22;4.00;;;2.70;;
40449;SDS011;41787;53.570;10.032;2022-09-30T14:19:52;6.07;;;3.58;;
40449;SDS011;41787;53.570;10.032;2022-09-30T14:22:22;6.18;;;3.45;;
40449;SDS011;41787;53.570;10.032;2022-09-30T14:24:50;7.32;;;3.35;;
40449;SDS011;41787;53.570;10.032;2022-09-30T14:35:07;5.68;;;3.28;;
40449;SDS011;41787;53.570;10.032;2022-09-30T14:37:38;4.95;;;3.50;;
40449;SDS011;41787;53.570;10.032;2022-09-30T14:40:10;6.57;;;3.15;;
40449;SDS011;41787;53.570;10.032;2022-09-30T14:42:37;5.15;;;3.38;;
40449;SDS011;41787;53.570;10.032;2022-09-30T14:45:05;8.25;;;4.25;;
40449;SDS011;41787;53.570;10.032;2022-09-30T14:47:34;5.43;;;3.80;;
40449;SDS011;41787;53.570;10.032;2022-09-30T14:50:02;5.25;;;3.92;;
40449;SDS011;41787;53.570;10.032;2022-09-30T14:52:37;5.95;;;4.35;;
40449;SDS011;41787;53.570;10.032;2022-09-30T14:58:21;6.10;;;3.63;;
40449;SDS011;41787;53.570;10.032;2022-09-30T15:03:29;6.35;;;4.63;;
40449;SDS011;41787;53.570;10.032;2022-09-30T15:05:57;4.72;;;4.13;;
40449;SDS011;41787;53.570;10.032;2022-09-30T15:08:23;4.32;;;3.42;;
40449;SDS011;41787;53.570;10.032;2022-09-30T15:10:50;12.18;;;3.80;;
40449;SDS011;41787;53.570;10.032;2022-09-30T15:13:17;5.55;;;3.88;;
40449;SDS011;41787;53.570;10.032;2022-09-30T15:15:43;5.78;;;4.03;;
40449;SDS011;41787;53.570;10.032;2022-09-30T15:20:51;6.25;;;3.85;;
40449;SDS011;41787;53.570;10.032;2022-09-30T15:23:24;8.02;;;4.93;;
40449;SDS011;41787;53.570;10.032;2022-09-30T15:25:51;7.20;;;3.85;;
40449;SDS011;41787;53.570;10.032;2022-09-30T15:28:17;5.25;;;3.67;;
40449;SDS011;41787;53.570;10.032;2022-09-30T15:30:43;6.35;;;3.65;;
40449;SDS011;41787;53.570;10.032;2022-09-30T15:33:16;6.63;;;3.92;;
40449;SDS011;41787;53.570;10.032;2022-09-30T15:35:43;7.78;;;4.10;;
40449;SDS011;41787;53.570;10.032;2022-09-30T15:38:14;4.88;;;3.80;;
40449;SDS011;41787;53.570;10.032;2022-09-30T15:40:44;5.75;;;3.55;;
40449;SDS011;41787;53.570;10.032;2022-09-30T15:43:11;5.88;;;3.65;;
40449;SDS011;41787;53.570;10.032;2022-09-30T15:53:17;5.60;;;3.83;;
40449;SDS011;41787;53.570;10.032;2022-09-30T15:55:44;4.95;;;3.08;;
40449;SDS011;41787;53.570;10.032;2022-09-30T16:03:35;6.38;;;4.05;;
40449;SDS011;41787;53.570;10.032;2022-09-30T16:06:08;7.15;;;4.35;;
40449;SDS011;41787;53.570;10.032;2022-09-30T16:08:40;6.78;;;3.60;;
40449;SDS011;41787;53.570;10.032;2022-09-30T16:11:07;4.05;;;3.30;;
40449;SDS011;41787;53.570;10.032;2022-09-30T16:13:33;6.43;;;3.50;;
40449;SDS011;41787;53.570;10.032;2022-09-30T16:16:01;6.38;;;3.58;;
40449;SDS011;41787;53.570;10.032;2022-09-30T16:18:27;8.43;;;3.15;;
40449;SDS011;41787;53.570;10.032;2022-09-30T16:21:00;7.75;;;4.40;;
40449;SDS011;41787;53.570;10.032;2022-09-30T16:23:28;9.95;;;5.28;;
40449;SDS011;41787;53.570;10.032;2022-09-30T16:28:39;9.05;;;5.03;;
40449;SDS011;41787;53.570;10.032;2022-09-30T16:31:07;6.90;;;4.70;;
40449;SDS011;41787;53.570;10.032;2022-09-30T16:33:33;8.10;;;5.20;;
40449;SDS011;41787;53.570;10.032;2022-09-30T16:36:02;11.05;;;3.53;;
40449;SDS011;41787;53.570;10.032;2022-09-30T16:38:28;6.25;;;4.07;;
40449;SDS011;41787;53.570;10.032;2022-09-30T16:40:54;6.32;;;3.63;;
40449;SDS011;41787;53.570;10.032;2022-09-30T16:43:22;7.18;;;3.83;;
40449;SDS011;41787;53.570;10.032;2022-09-30T16:45:50;9.40;;;4.25;;
40449;SDS011;41787;53.570;10.032;2022-09-30T16:48:17;6.05;;;3.67;;
40449;SDS011;41787;53.570;10.032;2022-09-30T16:53:48;7.80;;;4.10;;
40449;SDS011;41787;53.570;10.032;2022-09-30T16:56:15;6.70;;;4.00;;
40449;SDS011;41787;53.570;10.032;2022-09-30T16:58:41;19.23;;;9.30;;
40449;SDS011;41787;53.570;10.032;2022-09-30T17:01:18;11.60;;;5.70;;
40449;SDS011;41787;53.570;10.032;2022-09-30T17:03:44;8.48;;;5.25;;
40449;SDS011;41787;53.570;10.032;2022-09-30T17:06:10;12.00;;;5.20;;
40449;SDS011;41787;53.570;10.032;2022-09-30T17:08:36;9.27;;;4.55;;
40449;SDS011;41787;53.570;10.032;2022-09-30T17:11:02;12.70;;;3.80;;
40449;SDS011;41787;53.570;10.032;2022-09-30T17:13:28;7.25;;;4.00;;
40449;SDS011;41787;53.570;10.032;2022-09-30T17:15:54;6.93;;;4.07;;
40449;SDS011;41787;53.570;10.032;2022-09-30T17:18:21;8.48;;;3.95;;
40449;SDS011;41787;53.570;10.032;2022-09-30T17:20:47;16.08;;;4.50;;